Time;durP1;ratioP1;P1;durP2;ratioP2;P2;SDS_P1;SDS_P2;PMS_P1;PMS_P2;Temp;Humidity;BMP_temperature;BMP_pressure;BME280_temperature;BME280_humidity;BME280_pressure;Samples;Min_cycle;Max_cycle;Signal;HPM_P1;HPM_P2
2023/04/21 00:02:01;;;;;;;32.90;17.93;;;;;;;9.34;79.54;99709.38;5058164;28;20615;-79
2023/04/21 00:04:27;;;;;;;30.15;17.90;;;;;;;9.32;80.02;99714.25;5058876;28;20296;-79
2023/04/21 00:06:53;;;;;;;33.25;15.82;;;;;;;9.34;79.50;99715.66;5059240;28;20514;-79
2023/04/21 00:09:19;;;;;;;31.00;17.10;;;;;;;9.44;79.19;99720.38;5058804;28;20020;-79
2023/04/21 00:11:44;;;;;;;27.67;16.15;;;;;;;9.37;79.31;99711.59;5058912;28;20116;-79
2023/04/21 00:14:10;;;;;;;27.48;16.63;;;;;;;9.38;79.58;99715.97;5058765;28;20047;-79
2023/04/21 00:16:35;;;;;;;24.77;15.50;;;;;;;9.57;78.80;99712.84;5058524;28;20092;-79
2023/04/21 00:19:01;;;;;;;32.10;17.63;;;;;;;9.44;79.12;99712.22;5058577;28;20264;-80
2023/04/21 00:21:27;;;;;;;30.45;16.77;;;;;;;9.37;79.34;99719.78;5058548;28;20040;-79
2023/04/21 00:23:52;;;;;;;21.88;13.93;;;;;;;9.21;80.34;99714.16;5059891;28;20032;-80
2023/04/21 00:26:19;;;;;;;27.27;14.63;;;;;;;9.23;80.04;99706.56;5058498;28;20043;-79
2023/04/21 00:28:45;;;;;;;30.02;15.90;;;;;;;9.29;80.25;99706.63;5059557;28;20101;-79
2023/04/21 00:31:10;;;;;;;29.55;17.35;;;;;;;9.11;81.17;99701.28;5058620;28;20666;-79
2023/04/21 00:33:35;;;;;;;25.17;15.02;;;;;;;9.45;79.74;99689.38;5058809;28;20175;-79
2023/04/21 00:36:00;;;;;;;34.40;18.20;;;;;;;9.61;79.02;99692.22;5058683;28;20048;-79
2023/04/21 00:38:26;;;;;;;31.07;16.47;;;;;;;9.62;78.52;99685.66;5059929;28;20298;-79
2023/04/21 00:40:51;;;;;;;29.38;16.77;;;;;;;9.63;79.09;99681.06;5058608;28;20284;-79
2023/04/21 00:43:16;;;;;;;28.70;16.13;;;;;;;9.59;79.29;99683.47;5058306;28;20052;-79
2023/04/21 00:45:44;;;;;;;30.08;16.02;;;;;;;9.44;79.74;99687.72;5059812;28;20254;-79
2023/04/21 00:48:10;;;;;;;29.40;16.77;;;;;;;9.52;79.74;99683.69;5059010;28;20028;-79
2023/04/21 00:50:35;;;;;;;29.15;16.65;;;;;;;9.41;80.36;99688.25;5058800;28;20300;-79
2023/04/21 00:53:01;;;;;;;28.00;16.60;;;;;;;9.40;80.61;99686.59;5059226;28;20024;-78
2023/04/21 00:55:26;;;;;;;32.72;16.35;;;;;;;9.47;80.62;99675.50;5063381;28;20024;-79
2023/04/21 00:57:54;;;;;;;30.55;16.90;;;;;;;9.65;79.23;99677.00;5065700;28;20585;-79
2023/04/21 01:00:25;;;;;;;28.75;16.88;;;;;;;9.54;80.04;99689.69;5066223;28;20705;-78
2023/04/21 01:02:50;;;;;;;36.85;18.73;;;;;;;9.49;80.11;99683.41;5065295;28;20126;-80
2023/04/21 01:05:17;;;;;;;28.38;16.92;;;;;;;9.30;81.11;99681.88;5063148;28;20127;-80
2023/04/21 01:07:43;;;;;;;39.70;19.77;;;;;;;9.57;80.03;99680.19;5066167;28;20478;-79
2023/04/21 01:10:08;;;;;;;30.90;16.35;;;;;;;9.45;80.02;99683.94;5064906;28;20058;-80
2023/04/21 01:12:44;;;;;;;30.70;18.30;;;;;;;9.30;81.13;99681.06;5065940;28;20474;-79
2023/04/21 01:15:11;;;;;;;27.55;15.27;;;;;;;9.24;81.54;99693.78;5065077;28;20440;-79
2023/04/21 01:17:37;;;;;;;31.63;17.63;;;;;;;9.44;80.56;99684.16;5065473;28;20037;-79
2023/04/21 01:20:08;;;;;;;31.17;16.75;;;;;;;9.26;81.63;99679.94;5065073;28;20028;-78
2023/04/21 01:22:37;;;;;;;33.63;17.98;;;;;;;9.52;80.65;99672.00;5064536;28;20024;-79
2023/04/21 01:25:02;;;;;;;33.70;18.52;;;;;;;9.63;79.73;99657.38;5064325;28;20040;-80
2023/04/21 01:27:28;;;;;;;30.63;16.98;;;;;;;9.65;79.85;99657.13;5065300;28;20450;-79
2023/04/21 01:29:54;;;;;;;32.08;19.15;;;;;;;9.68;80.01;99648.44;5065463;28;20086;-79
2023/04/21 01:32:22;;;;;;;26.90;16.02;;;;;;;9.62;79.99;99649.50;5063500;28;20027;-80
2023/04/21 01:34:48;;;;;;;33.33;18.65;;;;;;;9.70;79.97;99651.72;5064768;28;20044;-79
2023/04/21 01:37:16;;;;;;;29.98;17.75;;;;;;;9.69;79.86;99656.34;5064035;28;20058;-80
2023/04/21 01:39:44;;;;;;;40.97;20.27;;;;;;;9.69;80.29;99663.69;5065414;28;20043;-79
2023/04/21 01:42:11;;;;;;;36.28;20.00;;;;;;;9.65;80.74;99655.22;5064593;28;21011;-79
2023/04/21 01:44:37;;;;;;;37.83;19.90;;;;;;;9.58;80.55;99641.00;5065466;28;20668;-79
2023/04/21 01:47:03;;;;;;;32.78;20.23;;;;;;;9.53;80.93;99674.47;5064798;28;20028;-78
2023/04/21 01:49:28;;;;;;;38.13;19.90;;;;;;;9.38;81.68;99677.03;5065257;28;20041;-78
2023/04/21 01:51:54;;;;;;;32.95;19.60;;;;;;;9.36;82.00;99680.03;5065070;28;20024;-79
2023/04/21 01:54:19;;;;;;;33.93;17.67;;;;;;;9.43;82.39;99669.75;5064382;28;20470;-79
2023/04/21 01:56:44;;;;;;;30.05;17.90;;;;;;;9.50;81.79;99668.72;5064943;28;20267;-80
2023/04/21 01:59:10;;;;;;;31.27;18.10;;;;;;;9.31;81.97;99672.66;5064012;28;20032;-79
2023/04/21 02:01:35;;;;;;;33.78;18.35;;;;;;;9.36;82.30;99669.13;5064903;28;20041;-78
2023/04/21 02:04:02;;;;;;;32.70;16.92;;;;;;;9.21;83.07;99667.13;5063843;28;20190;-79
2023/04/21 02:06:30;;;;;;;35.65;20.55;;;;;;;9.15;83.57;99659.97;5061880;28;20060;-79
2023/04/21 02:08:55;;;;;;;33.60;18.70;;;;;;;9.36;82.66;99649.28;5062158;28;20040;-79
2023/04/21 02:11:20;;;;;;;29.50;18.45;;;;;;;9.56;81.34;99648.59;5060952;28;20063;-79
2023/04/21 02:13:46;;;;;;;33.55;19.58;;;;;;;9.63;81.14;99651.94;5061304;28;20032;-79
2023/04/21 02:16:11;;;;;;;32.70;19.67;;;;;;;9.68;80.92;99648.44;5060838;28;20029;-79
2023/04/21 02:18:38;;;;;;;33.30;17.92;;;;;;;9.67;80.78;99649.50;5061051;28;20296;-79
2023/04/21 02:21:04;;;;;;;25.15;16.90;;;;;;;9.76;80.21;99647.13;5061137;28;20043;-79
2023/04/21 02:23:30;;;;;;;30.65;16.38;;;;;;;9.43;81.91;99658.03;5060949;28;20059;-79
2023/04/21 02:25:55;;;;;;;35.63;18.47;;;;;;;9.34;82.60;99636.75;5063803;28;20024;-80
2023/04/21 02:28:20;;;;;;;39.60;18.92;;;;;;;9.50;81.40;99636.88;5060615;28;20947;-79
2023/04/21 02:30:46;;;;;;;32.03;19.40;;;;;;;9.19;83.02;99651.03;5062394;28;20511;-79
2023/04/21 02:33:11;;;;;;;32.40;17.75;;;;;;;9.22;83.36;99652.41;5059733;28;20277;-79
2023/04/21 02:35:36;;;;;;;37.67;18.08;;;;;;;9.37;82.81;99654.47;5059638;28;20123;-79
2023/04/21 02:38:06;;;;;;;34.70;18.40;;;;;;;9.38;82.52;99656.09;5061448;28;20036;-80
2023/04/21 02:40:31;;;;;;;36.30;17.85;;;;;;;9.57;81.76;99647.53;5061154;28;20075;-79
2023/04/21 02:42:56;;;;;;;34.35;20.85;;;;;;;9.66;81.32;99648.69;5060408;28;20667;-79
2023/04/21 02:45:21;;;;;;;33.03;19.33;;;;;;;9.69;81.11;99644.63;5059534;28;20067;-79
2023/04/21 02:47:47;;;;;;;35.80;19.93;;;;;;;9.55;81.82;99641.53;5060383;28;20025;-80
2023/04/21 02:50:13;;;;;;;39.43;21.20;;;;;;;9.44;82.55;99643.34;5060317;28;20384;-80
2023/04/21 02:52:38;;;;;;;34.70;22.00;;;;;;;9.58;81.81;99644.56;5061916;28;20339;-79
2023/04/21 02:55:04;;;;;;;39.27;21.03;;;;;;;9.59;81.60;99637.22;5060208;28;20040;-78
2023/04/21 02:57:29;;;;;;;36.03;20.75;;;;;;;9.62;81.64;99631.22;5061204;28;20288;-78
2023/04/21 02:59:54;;;;;;;39.20;19.80;;;;;;;9.67;80.85;99642.16;5060781;28;20111;-79
2023/04/21 03:02:20;;;;;;;33.33;18.63;;;;;;;9.65;81.10;99644.34;5060622;28;20036;-78
2023/04/21 03:04:45;;;;;;;31.98;17.55;;;;;;;9.59;81.57;99645.38;5060634;28;20807;-79
2023/04/21 03:07:12;;;;;;;32.50;18.43;;;;;;;9.46;82.06;99658.34;5060650;28;20041;-79
2023/04/21 03:09:38;;;;;;;35.33;20.00;;;;;;;9.33;82.83;99653.34;5060338;28;20827;-79
2023/04/21 03:12:03;;;;;;;34.17;16.30;;;;;;;9.16;83.42;99664.34;5060651;28;20029;-79
2023/04/21 03:14:28;;;;;;;37.13;19.92;;;;;;;9.21;83.94;99661.69;5059894;28;20095;-79
2023/04/21 03:16:54;;;;;;;37.37;19.73;;;;;;;9.22;83.81;99669.56;5060762;28;20029;-79
2023/04/21 03:19:19;;;;;;;37.97;21.25;;;;;;;9.38;82.86;99656.09;5060151;28;20292;-79
2023/04/21 03:21:45;;;;;;;29.63;18.50;;;;;;;9.25;83.26;99660.09;5060866;28;20112;-79
2023/04/21 03:24:10;;;;;;;36.10;19.85;;;;;;;9.07;84.04;99661.28;5060791;28;20946;-79
2023/04/21 03:26:38;;;;;;;33.63;19.08;;;;;;;8.91;85.59;99663.81;5059919;28;20028;-79
2023/04/21 03:29:03;;;;;;;34.45;17.77;;;;;;;9.06;85.08;99659.63;5061067;28;20024;-78
2023/04/21 03:31:29;;;;;;;34.83;17.90;;;;;;;9.22;84.19;99655.97;5059791;28;20044;-79
2023/04/21 03:33:54;;;;;;;35.90;19.98;;;;;;;9.15;84.44;99651.81;5059896;28;20762;-79
2023/04/21 03:36:19;;;;;;;38.83;20.93;;;;;;;9.15;84.38;99649.94;5060216;28;20082;-79
2023/04/21 03:38:44;;;;;;;43.03;22.35;;;;;;;9.23;83.64;99648.63;5060623;28;20258;-79
2023/04/21 03:41:10;;;;;;;39.57;19.80;;;;;;;9.36;82.82;99649.28;5059697;28;20049;-79
2023/04/21 03:43:35;;;;;;;37.23;18.87;;;;;;;9.06;84.27;99659.63;5059747;28;20724;-79
2023/04/21 03:46:00;;;;;;;37.93;19.60;;;;;;;8.87;84.69;99651.81;5060307;28;20287;-79
2023/04/21 03:48:27;;;;;;;37.03;20.27;;;;;;;9.01;85.05;99660.38;5059225;28;20282;-79
2023/04/21 03:50:52;;;;;;;33.17;19.00;;;;;;;9.11;84.33;99659.69;5061365;28;20757;-79
2023/04/21 03:53:17;;;;;;;35.07;21.27;;;;;;;9.04;84.50;99657.16;5059101;28;20021;-79
2023/04/21 03:55:42;;;;;;;33.17;20.27;;;;;;;8.89;85.36;99660.53;5059731;28;20687;-79
2023/04/21 03:58:08;;;;;;;36.93;18.87;;;;;;;9.06;85.14;99659.63;5057700;28;20322;-79
2023/04/21 04:00:33;;;;;;;42.20;22.13;;;;;;;9.37;82.99;99650.91;5059113;28;20266;-79
2023/04/21 04:02:58;;;;;;;40.20;21.03;;;;;;;9.39;82.87;99656.91;5058539;28;20962;-79
2023/04/21 04:05:24;;;;;;;34.77;20.67;;;;;;;9.32;83.09;99652.50;5058278;28;20342;-79
2023/04/21 04:07:49;;;;;;;44.28;23.52;;;;;;;9.44;82.43;99644.19;5059267;28;20269;-79
2023/04/21 04:10:14;;;;;;;39.35;22.52;;;;;;;9.31;82.46;99652.78;5059115;28;21216;-79
2023/04/21 04:12:39;;;;;;;36.43;20.30;;;;;;;9.10;83.79;99661.56;5059552;28;20024;-79
2023/04/21 04:15:06;;;;;;;42.47;22.13;;;;;;;9.05;84.63;99658.78;5058837;28;21078;-79
2023/04/21 04:17:31;;;;;;;38.83;22.63;;;;;;;9.04;84.33;99645.47;5058800;28;20032;-79
2023/04/21 04:19:57;;;;;;;34.73;21.90;;;;;;;9.28;83.55;99636.97;5057790;28;20410;-79
2023/04/21 04:22:22;;;;;;;36.77;20.90;;;;;;;9.22;83.48;99636.09;5058452;28;20347;-80
2023/04/21 04:24:47;;;;;;;39.07;22.60;;;;;;;9.00;84.81;99639.72;5058757;28;20320;-80
2023/04/21 04:27:13;;;;;;;44.30;23.37;;;;;;;9.07;84.34;99639.53;5057134;28;20273;-80
2023/04/21 04:29:38;;;;;;;40.25;21.48;;;;;;;9.12;84.48;99642.28;5058243;28;20681;-79
2023/04/21 04:32:05;;;;;;;38.75;22.73;;;;;;;9.18;84.07;99634.97;5058772;28;20482;-79
2023/04/21 04:34:31;;;;;;;38.40;22.60;;;;;;;9.31;83.23;99639.19;5057391;28;20643;-79
2023/04/21 04:36:57;;;;;;;41.67;22.90;;;;;;;9.04;84.31;99654.44;5059316;28;20024;-79
2023/04/21 04:39:24;;;;;;;37.17;20.48;;;;;;;8.96;84.48;99642.13;5058737;28;20535;-79
2023/04/21 04:41:51;;;;;;;44.90;21.80;;;;;;;8.91;85.38;99642.06;5058465;28;20052;-80
2023/04/21 04:44:17;;;;;;;37.55;22.52;;;;;;;9.05;84.53;99641.69;5056674;28;20541;-80
2023/04/21 04:46:43;;;;;;;42.65;22.17;;;;;;;9.03;84.67;99641.13;5058913;28;20120;-80
2023/04/21 04:49:08;;;;;;;41.05;21.70;;;;;;;9.06;84.71;99646.03;5058130;28;20029;-79
2023/04/21 04:51:33;;;;;;;41.97;23.67;;;;;;;9.30;83.15;99641.06;5057848;28;20032;-80
2023/04/21 04:53:58;;;;;;;35.90;21.58;;;;;;;9.40;83.02;99647.66;5058591;28;20643;-80
2023/04/21 04:56:24;;;;;;;41.37;22.80;;;;;;;9.25;82.90;99656.53;5058029;28;20029;-80
2023/04/21 04:58:49;;;;;;;38.45;22.67;;;;;;;9.32;82.74;99654.41;5058592;28;20330;-80
2023/04/21 05:01:15;;;;;;;45.85;24.80;;;;;;;9.28;nan;99645.13;5057424;28;20028;-80
2023/04/21 05:03:41;;;;;;;42.83;23.30;;;;;;;9.28;82.97;99653.28;5059346;28;20474;-80
2023/04/21 05:06:06;;;;;;;47.33;26.38;;;;;;;9.41;82.73;99643.88;5057884;28;20040;-79
2023/04/21 05:08:32;;;;;;;42.50;25.17;;;;;;;9.45;82.17;99645.00;5058222;28;20024;-80
2023/04/21 05:10:57;;;;;;;46.78;24.42;;;;;;;9.45;82.26;99650.44;5059010;28;20066;-80
2023/04/21 05:13:23;;;;;;;46.67;24.77;;;;;;;9.39;82.24;99646.88;5058118;28;20025;-80
2023/04/21 05:15:48;;;;;;;50.53;26.43;;;;;;;9.36;82.67;99643.84;5059067;28;20124;-80
2023/04/21 05:18:13;;;;;;;41.03;23.30;;;;;;;9.37;82.52;99640.88;5058135;28;20970;-80
2023/04/21 05:20:41;;;;;;;52.23;25.30;;;;;;;9.43;82.30;99637.09;5059020;28;20281;-80
2023/04/21 05:23:07;;;;;;;42.60;24.95;;;;;;;9.49;81.95;99634.41;5057485;28;20268;-79
2023/04/21 05:25:32;;;;;;;47.80;26.08;;;;;;;9.48;81.81;99640.94;5058399;28;20033;-80
2023/04/21 05:27:58;;;;;;;40.10;24.83;;;;;;;9.40;81.83;99648.50;5059494;28;20027;-80
2023/04/21 05:30:23;;;;;;;42.15;25.38;;;;;;;9.39;81.53;99640.59;5058894;28;20402;-80
2023/04/21 05:32:49;;;;;;;43.88;23.20;;;;;;;9.36;81.74;99652.81;5059428;28;20028;-79
2023/04/21 05:35:15;;;;;;;46.78;26.45;;;;;;;9.36;81.70;99646.56;5058149;28;20037;-79
2023/04/21 05:37:40;;;;;;;45.88;27.15;;;;;;;9.35;81.99;99645.75;5059309;28;20058;-80
2023/04/21 05:40:06;;;;;;;53.67;25.15;;;;;;;9.29;81.88;99654.94;5058616;28;20132;-79
2023/04/21 05:42:31;;;;;;;46.47;25.15;;;;;;;9.35;82.13;99651.19;5061010;28;20090;-79
2023/04/21 05:44:56;;;;;;;49.97;27.90;;;;;;;9.43;81.51;99668.94;5061425;28;20037;-79
2023/04/21 05:47:22;;;;;;;51.85;26.05;;;;;;;9.41;81.40;99661.03;5062237;28;20280;-79
2023/04/21 05:49:51;;;;;;;37.38;24.10;;;;;;;9.38;81.83;99664.25;5063256;28;20036;-79
2023/04/21 05:52:16;;;;;;;41.65;26.75;;;;;;;9.37;81.78;99665.34;5062474;28;20047;-79
2023/04/21 05:54:42;;;;;;;43.60;24.45;;;;;;;9.40;81.83;99674.88;5062956;28;20402;-79
2023/04/21 05:57:07;;;;;;;46.42;26.10;;;;;;;9.44;81.92;99665.94;5062457;28;20036;-79
2023/04/21 05:59:32;;;;;;;45.43;26.23;;;;;;;9.53;81.68;99673.63;5062355;28;20024;-81
2023/04/21 06:01:58;;;;;;;45.65;25.50;;;;;;;9.56;81.96;99673.94;5063776;28;20269;-81
2023/04/21 06:04:23;;;;;;;43.10;22.33;;;;;;;9.60;82.07;99673.41;5061703;28;20032;-80
2023/04/21 06:06:48;;;;;;;43.93;24.60;;;;;;;9.41;83.29;99669.19;5062804;28;20544;-80
2023/04/21 06:09:14;;;;;;;34.08;21.15;;;;;;;9.35;84.09;99667.50;5062187;28;20278;-80
2023/04/21 06:11:40;;;;;;;41.60;22.27;;;;;;;9.66;82.98;99662.28;5062664;28;20039;-81
2023/04/21 06:14:05;;;;;;;42.90;25.25;;;;;;;9.83;82.51;99658.59;5060759;28;20075;-80
2023/04/21 06:16:32;;;;;;;37.95;22.55;;;;;;;9.90;82.17;99651.03;5062869;28;20033;-80
2023/04/21 06:18:58;;;;;;;43.90;24.52;;;;;;;9.97;82.07;99653.50;5061086;28;20059;-79
2023/04/21 06:21:23;;;;;;;44.08;23.92;;;;;;;9.87;82.34;99648.00;5061842;28;20135;-80
2023/04/21 06:23:48;;;;;;;47.43;24.50;;;;;;;9.93;82.34;99639.59;5061770;28;20036;-79
2023/04/21 06:26:14;;;;;;;45.57;25.83;;;;;;;10.04;81.97;99637.78;5061767;28;20253;-79
2023/04/21 06:28:39;;;;;;;46.40;25.95;;;;;;;9.99;82.39;99648.63;5060459;28;20271;-80
2023/04/21 06:31:05;;;;;;;39.08;22.90;;;;;;;9.97;82.48;99639.06;5061304;28;20379;-81
2023/04/21 06:33:31;;;;;;;44.00;24.30;;;;;;;9.91;82.92;99639.06;5061722;28;20039;-80
2023/04/21 06:35:56;;;;;;;47.53;26.35;;;;;;;9.93;82.83;99650.50;5060954;28;20059;-82
2023/04/21 06:38:21;;;;;;;45.23;26.70;;;;;;;10.03;82.88;99649.72;5060478;28;20028;-80
2023/04/21 06:40:47;;;;;;;40.22;23.35;;;;;;;10.12;82.96;99647.34;5061376;28;20292;-77
2023/04/21 06:43:12;;;;;;;41.65;24.52;;;;;;;10.21;82.82;99644.13;5060974;28;20044;-79
2023/04/21 06:45:37;;;;;;;43.30;24.70;;;;;;;10.22;82.56;99652.00;5061069;28;20044;-78
2023/04/21 06:48:03;;;;;;;47.47;25.73;;;;;;;10.36;82.45;99656.97;5060848;28;20044;-80
2023/04/21 06:50:28;;;;;;;43.30;25.05;;;;;;;10.19;83.37;99651.72;5060626;28;20408;-80
2023/04/21 06:52:53;;;;;;;47.92;26.20;;;;;;;10.24;83.53;99649.03;5060507;28;20037;-80
2023/04/21 06:55:19;;;;;;;47.53;27.60;;;;;;;10.45;82.87;99658.13;5060408;28;20694;-80
2023/04/21 06:57:44;;;;;;;46.25;25.00;;;;;;;10.58;82.29;99658.72;5060902;28;20056;-80
2023/04/21 07:00:10;;;;;;;50.53;26.77;;;;;;;10.68;82.40;99663.41;5060432;28;20041;-80
2023/04/21 07:02:35;;;;;;;37.42;21.75;;;;;;;10.71;82.77;99657.41;5061211;28;20292;-80
2023/04/21 07:05:01;;;;;;;50.73;23.27;;;;;;;10.88;81.86;99656.38;5059928;28;20481;-80
2023/04/21 07:07:26;;;;;;;37.47;23.70;;;;;;;10.95;81.61;99656.91;5060892;28;20269;-80
2023/04/21 07:09:51;;;;;;;37.28;21.25;;;;;;;10.95;81.28;99654.19;5059882;28;20265;-79
2023/04/21 07:12:16;;;;;;;40.47;23.43;;;;;;;11.03;81.77;99641.91;5060029;28;20060;-80
2023/04/21 07:14:42;;;;;;;35.93;20.87;;;;;;;10.98;81.39;99645.47;5059019;28;20272;-80
2023/04/21 07:17:07;;;;;;;46.53;24.73;;;;;;;11.04;81.48;99643.56;5059702;28;20265;-79
2023/04/21 07:19:32;;;;;;;35.37;22.87;;;;;;;11.18;81.31;99635.66;5059811;28;20267;-79
2023/04/21 07:21:58;;;;;;;40.53;20.33;;;;;;;11.27;81.27;99631.28;5061254;28;20278;-78
2023/04/21 07:24:23;;;;;;;37.63;22.80;;;;;;;11.31;80.63;99632.38;5059686;28;20328;-79
2023/04/21 07:26:48;;;;;;;38.78;21.85;;;;;;;11.29;81.16;99629.09;5059755;28;20037;-79
2023/04/21 07:29:13;;;;;;;38.90;22.63;;;;;;;11.40;80.79;99629.13;5059564;28;20094;-79
2023/04/21 07:31:39;;;;;;;39.47;21.42;;;;;;;11.33;81.79;99632.94;5060128;28;20265;-79
2023/04/21 07:34:04;;;;;;;38.92;19.38;;;;;;;11.25;82.69;99641.66;5059510;28;20051;-79
2023/04/21 07:36:30;;;;;;;36.47;22.73;;;;;;;11.44;82.15;99641.94;5060820;28;20463;-80
2023/04/21 07:38:55;;;;;;;35.42;21.85;;;;;;;11.57;80.99;99639.75;5060414;28;21278;-79
2023/04/21 07:41:21;;;;;;;40.78;22.20;;;;;;;11.62;81.41;99636.19;5059471;28;20055;-79
2023/04/21 07:43:46;;;;;;;31.85;18.60;;;;;;;11.76;80.70;99631.81;5089356;28;20033;-79
2023/04/21 07:46:12;;;;;;;36.87;21.50;;;;;;;11.84;80.75;99622.22;5059012;28;20033;-79
2023/04/21 07:48:38;;;;;;;35.15;20.63;;;;;;;11.84;80.04;99618.69;5058670;28;20336;-79
2023/04/21 07:51:03;;;;;;;33.97;20.95;;;;;;;11.73;81.08;99626.91;5059226;28;20041;-79
2023/04/21 07:53:29;;;;;;;34.05;21.35;;;;;;;11.83;80.64;99620.59;5061942;28;20024;-78
2023/04/21 07:55:54;;;;;;;38.58;22.63;;;;;;;11.86;80.89;99625.50;5059486;28;20123;-79
2023/04/21 07:58:20;;;;;;;38.50;21.13;;;;;;;11.88;81.13;99633.41;5059985;28;20032;-79
2023/04/21 08:00:46;;;;;;;42.72;25.50;;;;;;;11.88;80.77;99628.78;5059692;28;20024;-79
2023/04/21 08:03:11;;;;;;;43.70;23.45;;;;;;;11.85;81.06;99628.50;5059303;28;20163;-79
2023/04/21 08:05:36;;;;;;;35.70;22.73;;;;;;;11.89;81.37;99618.66;5059017;28;20079;-79
2023/04/21 08:08:02;;;;;;;39.10;22.03;;;;;;;11.88;81.18;99627.94;5059921;28;20268;-79
2023/04/21 08:10:27;;;;;;;38.25;22.48;;;;;;;11.70;81.87;99621.16;5059680;28;21002;-79
2023/04/21 08:12:52;;;;;;;43.78;22.92;;;;;;;11.67;82.34;99623.34;5060325;28;20027;-79
2023/04/21 08:15:18;;;;;;;41.63;22.17;;;;;;;11.85;81.86;99629.34;5058451;28;20036;-80
2023/04/21 08:17:43;;;;;;;38.03;22.20;;;;;;;11.95;81.37;99633.13;5058692;28;20289;-80
2023/04/21 08:20:09;;;;;;;46.75;23.45;;;;;;;12.03;80.88;99630.66;5059309;28;20047;-79
2023/04/21 08:22:35;;;;;;;33.80;19.88;;;;;;;12.07;81.59;99639.09;5058950;28;20040;-79
2023/04/21 08:25:01;;;;;;;32.60;21.13;;;;;;;12.14;80.63;99631.44;5059372;28;20082;-79
2023/04/21 08:27:27;;;;;;;37.97;18.83;;;;;;;12.23;80.73;99633.63;5059121;28;20102;-78
2023/04/21 08:29:52;;;;;;;35.90;22.02;;;;;;;12.22;80.98;99635.56;5060068;28;20037;-79
2023/04/21 08:32:22;;;;;;;41.65;21.17;;;;;;;12.25;80.41;99639.63;5058735;28;20062;-79
2023/04/21 08:34:49;;;;;;;51.78;20.83;;;;;;;12.28;80.62;99635.50;5058394;28;20069;-79
2023/04/21 08:37:14;;;;;;;36.63;23.10;;;;;;;12.33;80.81;99649.16;5058320;28;20040;-79
2023/04/21 08:39:40;;;;;;;40.10;20.35;;;;;;;12.32;80.95;99642.06;5059260;28;20043;-79
2023/04/21 08:42:07;;;;;;;36.83;21.52;;;;;;;12.37;80.75;99644.75;5059367;28;20032;-79
2023/04/21 08:44:32;;;;;;;42.88;20.52;;;;;;;12.39;81.08;99637.09;5059379;28;20041;-79
2023/04/21 08:46:58;;;;;;;35.13;21.77;;;;;;;12.44;80.33;99639.81;5059455;28;20039;-79
2023/04/21 08:49:28;;;;;;;33.60;20.52;;;;;;;12.48;80.28;99640.06;5058757;28;20293;-79
2023/04/21 08:51:53;;;;;;;30.70;17.95;;;;;;;12.52;80.51;99641.16;5059012;28;20051;-79
2023/04/21 08:54:19;;;;;;;36.78;22.05;;;;;;;12.61;80.31;99649.56;5058524;28;20511;-79
2023/04/21 08:56:46;;;;;;;35.33;20.83;;;;;;;12.60;80.01;99650.69;5060039;28;20033;-79
2023/04/21 08:59:12;;;;;;;38.47;21.38;;;;;;;12.59;80.33;99651.78;5059488;28;20033;-79
2023/04/21 09:02:09;;;;;;;31.05;18.75;;;;;;;12.64;79.63;99649.03;5059243;28;20098;-79
2023/04/21 09:04:45;;;;;;;34.53;20.55;;;;;;;12.50;80.36;99648.81;5058442;28;20036;-79
2023/04/21 09:07:12;;;;;;;34.47;19.55;;;;;;;12.59;80.63;99649.06;5059736;28;20033;-85
2023/04/21 09:09:56;;;;;;;43.88;23.80;;;;;;;12.67;80.18;99653.13;5060137;28;20747;-84
2023/04/21 09:12:22;;;;;;;34.47;21.58;;;;;;;12.68;80.24;99646.53;5059115;28;20144;-86
2023/04/21 09:14:48;;;;;;;33.20;19.63;;;;;;;12.64;80.85;99640.81;5059408;28;20059;-80
2023/04/21 09:17:17;;;;;;;49.80;21.05;;;;;;;12.68;80.33;99638.34;5062896;28;20036;-83
2023/04/21 09:19:43;;;;;;;35.92;18.75;;;;;;;12.52;81.25;99640.31;5063135;28;20039;-83
2023/04/21 09:22:12;;;;;;;36.20;20.77;;;;;;;12.49;81.26;99634.31;5062703;28;20024;-82
2023/04/21 09:24:44;;;;;;;33.97;20.35;;;;;;;12.61;80.43;99641.38;5062731;28;20442;-81
2023/04/21 09:27:09;;;;;;;39.70;20.73;;;;;;;12.62;80.64;99640.28;5062044;28;20032;-81
2023/04/21 09:29:34;;;;;;;30.70;18.25;;;;;;;12.59;80.74;99646.31;5062557;28;20075;-81
2023/04/21 09:32:00;;;;;;;54.55;21.42;;;;;;;12.63;80.65;99646.56;5062506;28;20060;-81
2023/04/21 09:34:25;;;;;;;34.00;17.77;;;;;;;12.62;80.38;99640.28;5062025;28;20039;-82
2023/04/21 09:37:02;;;;;;;35.83;19.53;;;;;;;12.68;80.28;99641.88;5062261;28;20037;-84
2023/04/21 09:39:29;;;;;;;40.70;19.50;;;;;;;12.53;80.99;99648.25;5062843;28;20274;-83
2023/04/21 09:41:56;;;;;;;34.25;18.65;;;;;;;12.54;80.40;99649.91;5063672;28;20038;-85
2023/04/21 09:44:21;;;;;;;38.20;19.73;;;;;;;12.57;80.70;99637.59;5062428;28;20130;-83
2023/04/21 09:46:52;;;;;;;34.20;18.13;;;;;;;12.56;80.84;99646.88;5063139;28;20056;-84
2023/04/21 09:49:21;;;;;;;32.45;18.27;;;;;;;12.75;80.50;99640.75;5062797;28;20980;-80
2023/04/21 09:51:47;;;;;;;29.65;17.58;;;;;;;12.83;79.73;99640.97;5061751;28;20032;-83
2023/04/21 09:54:17;;;;;;;29.23;16.50;;;;;;;12.82;79.72;99635.78;5062758;28;21249;-83
2023/04/21 09:56:46;;;;;;;27.92;16.58;;;;;;;12.81;79.51;99632.22;5063812;28;20033;-85
2023/04/21 09:59:18;;;;;;;36.05;19.75;;;;;;;12.81;79.48;99629.50;5062946;28;20029;-86
2023/04/21 10:01:47;;;;;;;32.65;18.92;;;;;;;12.83;79.37;99629.22;5062867;28;20055;-82
2023/04/21 10:04:13;;;;;;;34.53;20.98;;;;;;;12.82;79.05;99627.59;5062330;28;20128;-85
2023/04/21 10:06:39;;;;;;;33.08;19.90;;;;;;;12.74;79.76;99626.25;5062363;28;20037;-83
2023/04/21 10:09:08;;;;;;;28.73;18.17;;;;;;;12.73;79.75;99614.50;5063210;28;20149;-85
2023/04/21 10:11:35;;;;;;;34.60;19.73;;;;;;;12.77;79.56;99613.94;5063165;28;20029;-83
2023/04/21 10:14:01;;;;;;;33.63;19.08;;;;;;;12.81;78.90;99609.53;5062906;28;20043;-81
2023/04/21 10:16:26;;;;;;;31.80;19.35;;;;;;;12.73;79.27;99614.50;5062222;28;20032;-83
2023/04/21 10:18:52;;;;;;;33.17;21.38;;;;;;;12.72;79.75;99612.06;5061492;28;20086;-85
2023/04/21 10:21:20;;;;;;;33.17;19.25;;;;;;;12.72;79.92;99615.59;5063561;28;20032;-83
2023/04/21 10:23:51;;;;;;;32.15;17.17;;;;;;;12.84;79.31;99619.91;5062944;28;20035;-79
2023/04/21 10:26:33;;;;;;;33.92;20.25;;;;;;;13.03;79.47;99620.06;5060391;28;20024;-80
2023/04/21 10:28:59;;;;;;;33.60;18.10;;;;;;;13.02;79.32;99623.88;5061841;28;20025;-80
2023/04/21 10:31:30;;;;;;;31.10;17.83;;;;;;;13.04;79.42;99623.59;5061733;28;20067;-80
2023/04/21 10:34:05;;;;;;;31.63;17.90;;;;;;;12.96;79.53;99628.59;5059894;28;20527;-81
2023/04/21 10:36:33;;;;;;;32.42;19.60;;;;;;;12.95;79.54;99621.50;5061529;28;20063;-81
2023/04/21 10:39:02;;;;;;;26.38;17.42;;;;;;;12.84;80.04;99626.22;5061900;28;20441;-81
2023/04/21 10:41:32;;;;;;;32.33;18.83;;;;;;;12.76;79.81;99617.75;5060016;28;20079;-81
2023/04/21 10:44:11;;;;;;;32.08;19.27;;;;;;;12.84;79.77;99618.00;5061180;28;20159;-81
2023/04/21 10:46:47;;;;;;;31.45;20.35;;;;;;;12.89;79.69;99610.84;5061893;28;20047;-81
2023/04/21 10:49:24;;;;;;;34.45;21.00;;;;;;;12.94;79.41;99614.38;5060956;28;20060;-81
2023/04/21 10:51:59;;;;;;;31.20;19.50;;;;;;;12.98;79.60;99605.59;5060416;28;20020;-81
2023/04/21 10:54:45;;;;;;;28.77;18.02;;;;;;;12.90;79.92;99613.31;5060833;28;20044;-82
2023/04/21 10:57:13;;;;;;;31.27;18.58;;;;;;;12.87;80.17;99599.38;5061233;28;20029;-81
2023/04/21 10:59:39;;;;;;;25.88;16.10;;;;;;;12.84;79.93;99606.22;5061152;28;20028;-81
2023/04/21 11:02:08;;;;;;;26.33;16.85;;;;;;;12.93;79.59;99606.44;5060677;28;20033;-81
2023/04/21 11:04:34;;;;;;;30.83;20.17;;;;;;;13.24;79.13;99599.94;5061063;28;20044;-81
2023/04/21 11:07:09;;;;;;;32.05;18.23;;;;;;;13.37;78.43;99592.94;5061105;28;20032;-81
2023/04/21 11:09:36;;;;;;;25.92;15.60;;;;;;;13.55;77.48;99599.66;5061842;28;20809;-81
2023/04/21 11:12:06;;;;;;;27.10;17.42;;;;;;;13.72;76.74;99592.94;5060232;28;20032;-80
2023/04/21 11:14:32;;;;;;;31.27;18.02;;;;;;;13.83;76.69;99588.97;5060828;28;20082;-81
2023/04/21 11:16:57;;;;;;;29.80;18.08;;;;;;;13.96;76.24;99581.97;5061260;28;20029;-81
2023/04/21 11:19:24;;;;;;;30.88;18.40;;;;;;;14.23;75.49;99577.00;5061036;28;20036;-80